sensor_id;sensor_type;location;lat;lon;timestamp;pressure;altitude;pressure_sealevel;temperature;humidity
75650;BME280;64245;51.282;22.494;2023-12-04T00:01:22;99469.88;;;-4.43;100.00
75650;BME280;64245;51.282;22.494;2023-12-04T00:03:48;99467.91;;;-4.36;100.00
75650;BME280;64245;51.282;22.494;2023-12-04T00:06:14;99464.63;;;-4.43;100.00
75650;BME280;64245;51.282;22.494;2023-12-04T00:08:40;99463.78;;;-4.43;100.00
75650;BME280;64245;51.282;22.494;2023-12-04T00:11:06;99472.41;;;-4.40;100.00
75650;BME280;64245;51.282;22.494;2023-12-04T00:13:32;99470.53;;;-4.36;100.00
75650;BME280;64245;51.282;22.494;2023-12-04T00:15:59;99469.72;;;-4.38;100.00
75650;BME280;64245;51.282;22.494;2023-12-04T00:18:25;99462.78;;;-4.41;100.00
75650;BME280;64245;51.282;22.494;2023-12-04T00:20:51;99476.63;;;-4.34;100.00
75650;BME280;64245;51.282;22.494;2023-12-04T00:23:17;99469.06;;;-4.45;100.00
75650;BME280;64245;51.282;22.494;2023-12-04T00:25:43;99459.50;;;-4.47;100.00
75650;BME280;64245;51.282;22.494;2023-12-04T00:28:09;99468.00;;;-4.39;100.00
75650;BME280;64245;51.282;22.494;2023-12-04T00:30:35;99475.88;;;-4.39;100.00
75650;BME280;64245;51.282;22.494;2023-12-04T00:33:01;99484.59;;;-4.37;100.00
75650;BME280;64245;51.282;22.494;2023-12-04T00:35:27;99478.59;;;-4.42;100.00
75650;BME280;64245;51.282;22.494;2023-12-04T00:37:52;99475.88;;;-4.39;100.00
75650;BME280;64245;51.282;22.494;2023-12-04T00:40:18;99475.94;;;-4.41;100.00
75650;BME280;64245;51.282;22.494;2023-12-04T00:42:44;99484.53;;;-4.36;100.00
75650;BME280;64245;51.282;22.494;2023-12-04T00:45:10;99483.94;;;-4.44;100.00
75650;BME280;64245;51.282;22.494;2023-12-04T00:47:36;99471.75;;;-4.46;100.00
75650;BME280;64245;51.282;22.494;2023-12-04T00:50:02;99481.19;;;-4.41;100.00
75650;BME280;64245;51.282;22.494;2023-12-04T00:59:50;99482.34;;;-4.49;100.00
75650;BME280;64245;51.282;22.494;2023-12-04T01:02:16;99476.41;;;-4.56;100.00
75650;BME280;64245;51.282;22.494;2023-12-04T01:04:42;99484.41;;;-4.61;100.00
75650;BME280;64245;51.282;22.494;2023-12-04T01:07:08;99489.03;;;-4.39;100.00
75650;BME280;64245;51.282;22.494;2023-12-04T01:09:35;99486.69;;;-4.48;100.00
75650;BME280;64245;51.282;22.494;2023-12-04T01:12:02;99491.94;;;-4.48;100.00
75650;BME280;64245;51.282;22.494;2023-12-04T01:14:28;99490.75;;;-4.38;100.00
75650;BME280;64245;51.282;22.494;2023-12-04T01:16:54;99468.53;;;-4.56;100.00
75650;BME280;64245;51.282;22.494;2023-12-04T01:19:20;99489.97;;;-4.42;100.00
75650;BME280;64245;51.282;22.494;2023-12-04T01:21:46;99490.84;;;-4.41;100.00
75650;BME280;64245;51.282;22.494;2023-12-04T01:24:11;99495.16;;;-4.39;100.00
75650;BME280;64245;51.282;22.494;2023-12-04T01:26:38;99482.03;;;-4.40;100.00
75650;BME280;64245;51.282;22.494;2023-12-04T01:29:03;99479.63;;;-4.46;100.00
75650;BME280;64245;51.282;22.494;2023-12-04T01:31:29;99485.84;;;-4.49;100.00
75650;BME280;64245;51.282;22.494;2023-12-04T01:33:55;99489.31;;;-4.48;100.00
75650;BME280;64245;51.282;22.494;2023-12-04T01:36:21;99481.19;;;-4.41;100.00
75650;BME280;64245;51.282;22.494;2023-12-04T01:38:47;99482.97;;;-4.41;100.00
75650;BME280;64245;51.282;22.494;2023-12-04T01:41:13;99482.47;;;-4.54;100.00
75650;BME280;64245;51.282;22.494;2023-12-04T01:43:38;99478.91;;;-4.52;100.00
75650;BME280;64245;51.282;22.494;2023-12-04T01:46:05;99476.66;;;-4.64;100.00
75650;BME280;64245;51.282;22.494;2023-12-04T01:48:32;99487.59;;;-4.49;100.00
75650;BME280;64245;51.282;22.494;2023-12-04T01:51:00;99473.72;;;-4.55;100.00
75650;BME280;64245;51.282;22.494;2023-12-04T01:53:28;99482.25;;;-4.46;100.00
75650;BME280;64245;51.282;22.494;2023-12-04T01:55:54;99490.91;;;-4.43;100.00
75650;BME280;64245;51.282;22.494;2023-12-04T01:58:20;99491.06;;;-4.47;100.00
75650;BME280;64245;51.282;22.494;2023-12-04T02:00:46;99493.75;;;-4.50;100.00
75650;BME280;64245;51.282;22.494;2023-12-04T02:03:13;99484.28;;;-4.56;100.00
75650;BME280;64245;51.282;22.494;2023-12-04T02:05:40;99486.84;;;-4.53;100.00
75650;BME280;64245;51.282;22.494;2023-12-04T02:08:06;99478.91;;;-4.52;100.00
75650;BME280;64245;51.282;22.494;2023-12-04T02:10:32;99489.28;;;-4.47;100.00
75650;BME280;64245;51.282;22.494;2023-12-04T02:12:58;99488.34;;;-4.44;100.00
75650;BME280;64245;51.282;22.494;2023-12-04T02:15:24;99486.31;;;-4.36;100.00
75650;BME280;64245;51.282;22.494;2023-12-04T02:17:49;99477.66;;;-4.40;100.00
75650;BME280;64245;51.282;22.494;2023-12-04T02:20:16;99478.59;;;-4.42;100.00
75650;BME280;64245;51.282;22.494;2023-12-04T02:22:42;99479.28;;;-4.36;100.00
75650;BME280;64245;51.282;22.494;2023-12-04T02:25:09;99474.97;;;-4.38;100.00
75650;BME280;64245;51.282;22.494;2023-12-04T02:27:49;99474.75;;;-4.31;100.00
75650;BME280;64245;51.282;22.494;2023-12-04T02:30:18;99471.41;;;-4.36;100.00
75650;BME280;64245;51.282;22.494;2023-12-04T02:32:46;99466.97;;;-4.34;100.00
75650;BME280;64245;51.282;22.494;2023-12-04T02:35:15;99468.81;;;-4.37;100.00
75650;BME280;64245;51.282;22.494;2023-12-04T02:37:42;99472.22;;;-4.34;100.00
75650;BME280;64245;51.282;22.494;2023-12-04T02:40:10;99467.00;;;-4.35;100.00
75650;BME280;64245;51.282;22.494;2023-12-04T02:42:36;99472.41;;;-4.40;100.00
75650;BME280;64245;51.282;22.494;2023-12-04T02:45:02;99476.09;;;-4.45;100.00
75650;BME280;64245;51.282;22.494;2023-12-04T02:47:28;99483.81;;;-4.41;100.00
75650;BME280;64245;51.282;22.494;2023-12-04T02:49:54;99471.66;;;-4.43;100.00
75650;BME280;64245;51.282;22.494;2023-12-04T02:52:19;99474.06;;;-4.37;100.00
75650;BME280;64245;51.282;22.494;2023-12-04T02:54:45;99477.69;;;-4.41;100.00
75650;BME280;64245;51.282;22.494;2023-12-04T02:57:11;99479.34;;;-4.37;100.00
75650;BME280;64245;51.282;22.494;2023-12-04T02:59:37;99474.97;;;-4.38;100.00
75650;BME280;64245;51.282;22.494;2023-12-04T03:02:03;99482.03;;;-4.40;100.00
75650;BME280;64245;51.282;22.494;2023-12-04T03:04:30;99476.06;;;-4.44;100.00
75650;BME280;64245;51.282;22.494;2023-12-04T03:06:55;99474.28;;;-4.43;100.00
75650;BME280;64245;51.282;22.494;2023-12-04T03:09:22;99475.72;;;-4.33;100.00
75650;BME280;64245;51.282;22.494;2023-12-04T03:11:48;99465.75;;;-4.52;100.00
75650;BME280;64245;51.282;22.494;2023-12-04T03:14:14;99481.19;;;-4.41;100.00
75650;BME280;64245;51.282;22.494;2023-12-04T03:16:40;99484.63;;;-4.39;100.00
75650;BME280;64245;51.282;22.494;2023-12-04T03:19:06;99489.25;;;-4.45;100.00
75650;BME280;64245;51.282;22.494;2023-12-04T03:21:31;99484.16;;;-4.52;100.00
75650;BME280;64245;51.282;22.494;2023-12-04T03:23:58;99472.59;;;-4.46;100.00
75650;BME280;64245;51.282;22.494;2023-12-04T03:26:23;99489.28;;;-4.47;100.00
75650;BME280;64245;51.282;22.494;2023-12-04T03:28:49;99491.75;;;-4.42;100.00
75650;BME280;64245;51.282;22.494;2023-12-04T03:31:15;99497.16;;;-4.47;100.00
75650;BME280;64245;51.282;22.494;2023-12-04T03:33:41;99495.78;;;-4.31;100.00
75650;BME280;64245;51.282;22.494;2023-12-04T03:36:07;99501.13;;;-4.34;100.00
75650;BME280;64245;51.282;22.494;2023-12-04T03:38:33;99503.59;;;-4.28;100.00
75650;BME280;64245;51.282;22.494;2023-12-04T03:40:59;99502.09;;;-4.36;100.00
75650;BME280;64245;51.282;22.494;2023-12-04T03:43:25;99496.19;;;-4.43;100.00
75650;BME280;64245;51.282;22.494;2023-12-04T03:45:51;99502.22;;;-4.41;100.00
75650;BME280;64245;51.282;22.494;2023-12-04T03:48:17;99491.63;;;-4.38;100.00
75650;BME280;64245;51.282;22.494;2023-12-04T03:50:42;99500.44;;;-4.40;100.00
75650;BME280;64245;51.282;22.494;2023-12-04T03:53:08;99493.59;;;-4.44;100.00
75650;BME280;64245;51.282;22.494;2023-12-04T03:55:34;99504.75;;;-4.38;100.00
75650;BME280;64245;51.282;22.494;2023-12-04T03:58:00;99503.28;;;-4.46;100.00
75650;BME280;64245;51.282;22.494;2023-12-04T04:00:26;99501.19;;;-4.35;100.00
75650;BME280;64245;51.282;22.494;2023-12-04T04:02:52;99505.66;;;-4.39;100.00
75650;BME280;64245;51.282;22.494;2023-12-04T04:05:17;99511.81;;;-4.40;100.00
75650;BME280;64245;51.282;22.494;2023-12-04T04:07:44;99516.94;;;-4.35;100.00
75650;BME280;64245;51.282;22.494;2023-12-04T04:10:09;99516.09;;;-4.36;100.00
75650;BME280;64245;51.282;22.494;2023-12-04T04:12:35;99518.75;;;-4.37;100.00
75650;BME280;64245;51.282;22.494;2023-12-04T04:15:01;99534.41;;;-4.33;100.00
75650;BME280;64245;51.282;22.494;2023-12-04T04:17:27;99527.47;;;-4.35;100.00
75650;BME280;64245;51.282;22.494;2023-12-04T04:19:53;99513.59;;;-4.40;100.00
75650;BME280;64245;51.282;22.494;2023-12-04T04:22:23;99533.38;;;-4.27;100.00
75650;BME280;64245;51.282;22.494;2023-12-04T04:24:49;99528.28;;;-4.33;100.00
75650;BME280;64245;51.282;22.494;2023-12-04T04:27:15;99521.91;;;-4.25;100.00
75650;BME280;64245;51.282;22.494;2023-12-04T04:29:41;99519.00;;;-4.17;100.00
75650;BME280;64245;51.282;22.494;2023-12-04T04:32:07;99523.66;;;-4.25;100.00
75650;BME280;64245;51.282;22.494;2023-12-04T04:34:33;99528.59;;;-4.14;100.00
75650;BME280;64245;51.282;22.494;2023-12-04T04:36:59;99533.78;;;-4.13;100.00
75650;BME280;64245;51.282;22.494;2023-12-04T04:39:25;99539.16;;;-4.16;100.00
75650;BME280;64245;51.282;22.494;2023-12-04T04:41:51;99544.22;;;-4.10;100.00
75650;BME280;64245;51.282;22.494;2023-12-04T04:44:16;99538.56;;;-4.26;100.00
75650;BME280;64245;51.282;22.494;2023-12-04T04:46:42;99528.03;;;-4.24;100.00
75650;BME280;64245;51.282;22.494;2023-12-04T04:49:08;99542.72;;;-4.19;100.00
75650;BME280;64245;51.282;22.494;2023-12-04T04:51:34;99541.69;;;-4.13;100.00
75650;BME280;64245;51.282;22.494;2023-12-04T04:54:12;99526.13;;;-4.21;100.00
75650;BME280;64245;51.282;22.494;2023-12-04T04:56:38;99546.13;;;-4.15;100.00
75650;BME280;64245;51.282;22.494;2023-12-04T04:59:04;99543.44;;;-4.13;100.00
75650;BME280;64245;51.282;22.494;2023-12-04T05:01:30;99550.03;;;-4.00;100.00
75650;BME280;64245;51.282;22.494;2023-12-04T05:03:56;99551.22;;;-4.09;100.00
75650;BME280;64245;51.282;22.494;2023-12-04T05:06:22;99532.75;;;-4.07;100.00
75650;BME280;64245;51.282;22.494;2023-12-04T05:08:48;99547.88;;;-4.15;100.00
75650;BME280;64245;51.282;22.494;2023-12-04T05:11:16;99549.38;;;-4.07;100.00
75650;BME280;64245;51.282;22.494;2023-12-04T05:13:42;99540.19;;;-4.22;100.00
75650;BME280;64245;51.282;22.494;2023-12-04T05:16:08;99541.69;;;-4.13;100.00
75650;BME280;64245;51.282;22.494;2023-12-04T05:18:34;99561.44;;;-4.00;100.00
75650;BME280;64245;51.282;22.494;2023-12-04T05:21:00;99555.31;;;-4.00;100.00
75650;BME280;64245;51.282;22.494;2023-12-04T05:23:26;99558.66;;;-3.95;100.00
75650;BME280;64245;51.282;22.494;2023-12-04T05:25:52;99558.75;;;-3.98;100.00
75650;BME280;64245;51.282;22.494;2023-12-04T05:28:17;99553.63;;;-4.03;100.00
75650;BME280;64245;51.282;22.494;2023-12-04T05:30:43;99555.16;;;-3.96;100.00
75650;BME280;64245;51.282;22.494;2023-12-04T05:33:09;99564.31;;;-4.07;100.00
75650;BME280;64245;51.282;22.494;2023-12-04T05:35:35;99556.38;;;-4.06;100.00
75650;BME280;64245;51.282;22.494;2023-12-04T05:38:02;99552.84;;;-4.05;100.00
75650;BME280;64245;51.282;22.494;2023-12-04T05:40:28;99561.50;;;-4.03;100.00
75650;BME280;64245;51.282;22.494;2023-12-04T05:42:54;99567.69;;;-4.04;100.00
75650;BME280;64245;51.282;22.494;2023-12-04T05:45:20;99566.91;;;-4.06;100.00
75650;BME280;64245;51.282;22.494;2023-12-04T05:47:45;99572.94;;;-4.04;100.00
75650;BME280;64245;51.282;22.494;2023-12-04T05:50:12;99568.31;;;-3.96;100.00
75650;BME280;64245;51.282;22.494;2023-12-04T05:52:37;99556.41;;;-4.07;100.00
75650;BME280;64245;51.282;22.494;2023-12-04T05:55:04;99554.84;;;-4.13;100.00
75650;BME280;64245;51.282;22.494;2023-12-04T05:57:30;99576.16;;;-3.94;100.00
75650;BME280;64245;51.282;22.494;2023-12-04T05:59:56;99573.72;;;-4.00;100.00
75650;BME280;64245;51.282;22.494;2023-12-04T06:02:22;99586.88;;;-4.00;100.00
75650;BME280;64245;51.282;22.494;2023-12-04T06:04:48;99592.00;;;-3.96;100.00
75650;BME280;64245;51.282;22.494;2023-12-04T06:07:13;99587.78;;;-4.01;100.00
75650;BME280;64245;51.282;22.494;2023-12-04T06:09:39;99589.69;;;-4.06;100.00
75650;BME280;64245;51.282;22.494;2023-12-04T06:12:05;99586.09;;;-4.04;100.00
75650;BME280;64245;51.282;22.494;2023-12-04T06:14:34;99589.59;;;-4.03;100.00
75650;BME280;64245;51.282;22.494;2023-12-04T06:17:00;99591.34;;;-4.04;100.00
75650;BME280;64245;51.282;22.494;2023-12-04T06:19:27;99583.38;;;-4.01;100.00
75650;BME280;64245;51.282;22.494;2023-12-04T06:21:54;99586.25;;;-4.08;100.00
75650;BME280;64245;51.282;22.494;2023-12-04T06:24:21;99591.34;;;-4.04;100.00
75650;BME280;64245;51.282;22.494;2023-12-04T06:26:49;99572.94;;;-4.04;100.00
75650;BME280;64245;51.282;22.494;2023-12-04T06:29:16;99591.13;;;-3.96;100.00
75650;BME280;64245;51.282;22.494;2023-12-04T06:31:42;99592.84;;;-3.95;100.00
75650;BME280;64245;51.282;22.494;2023-12-04T06:34:08;99593.75;;;-3.96;100.00
75650;BME280;64245;51.282;22.494;2023-12-04T06:36:37;99595.56;;;-3.98;100.00
75650;BME280;64245;51.282;22.494;2023-12-04T06:39:09;99590.88;;;-3.87;100.00
75650;BME280;64245;51.282;22.494;2023-12-04T06:41:36;99591.09;;;-3.95;100.00
75650;BME280;64245;51.282;22.494;2023-12-04T06:44:02;99598.13;;;-3.95;100.00
75650;BME280;64245;51.282;22.494;2023-12-04T06:46:30;99594.56;;;-3.94;100.00
75650;BME280;64245;51.282;22.494;2023-12-04T06:49:00;99589.22;;;-3.91;100.00
75650;BME280;64245;51.282;22.494;2023-12-04T06:51:28;99598.84;;;-3.90;100.00
75650;BME280;64245;51.282;22.494;2023-12-04T06:53:54;99602.28;;;-3.88;100.00
75650;BME280;64245;51.282;22.494;2023-12-04T06:56:20;99605.81;;;-3.89;100.00
75650;BME280;64245;51.282;22.494;2023-12-04T06:58:46;99607.50;;;-3.87;100.00
75650;BME280;64245;51.282;22.494;2023-12-04T07:01:12;99612.78;;;-3.87;100.00
75650;BME280;64245;51.282;22.494;2023-12-04T07:03:38;99603.19;;;-3.89;100.00
75650;BME280;64245;51.282;22.494;2023-12-04T07:06:04;99613.56;;;-3.85;100.00
75650;BME280;64245;51.282;22.494;2023-12-04T07:08:30;99611.03;;;-3.88;100.00
75650;BME280;64245;51.282;22.494;2023-12-04T07:10:56;99609.97;;;-3.82;100.00
75650;BME280;64245;51.282;22.494;2023-12-04T07:13:22;99625.53;;;-3.74;100.00
75650;BME280;64245;51.282;22.494;2023-12-04T07:15:47;99621.22;;;-3.77;100.00
75650;BME280;64245;51.282;22.494;2023-12-04T07:18:13;99627.25;;;-3.73;100.00
75650;BME280;64245;51.282;22.494;2023-12-04T07:20:39;99627.25;;;-3.73;100.00
75650;BME280;64245;51.282;22.494;2023-12-04T07:23:05;99621.31;;;-3.80;100.00
75650;BME280;64245;51.282;22.494;2023-12-04T07:25:30;99628.16;;;-3.74;100.00
75650;BME280;64245;51.282;22.494;2023-12-04T07:27:57;99614.28;;;-3.79;100.00
75650;BME280;64245;51.282;22.494;2023-12-04T07:30:25;99623.47;;;-3.65;100.00
75650;BME280;64245;51.282;22.494;2023-12-04T07:32:52;99609.03;;;-3.79;100.00
75650;BME280;64245;51.282;22.494;2023-12-04T07:35:19;99619.31;;;-3.72;100.00
75650;BME280;64245;51.282;22.494;2023-12-04T07:37:45;99627.16;;;-3.70;100.00
75650;BME280;64245;51.282;22.494;2023-12-04T07:40:11;99632.38;;;-3.69;100.00
75650;BME280;64245;51.282;22.494;2023-12-04T07:42:37;99635.34;;;-3.52;100.00
75650;BME280;64245;51.282;22.494;2023-12-04T07:45:04;99637.16;;;-3.54;100.00
75650;BME280;64245;51.282;22.494;2023-12-04T07:47:30;99637.97;;;-3.52;100.00
75650;BME280;64245;51.282;22.494;2023-12-04T07:49:56;99625.47;;;-3.45;100.00
75650;BME280;64245;51.282;22.494;2023-12-04T07:52:22;99641.53;;;-3.53;100.00
75650;BME280;64245;51.282;22.494;2023-12-04T07:54:48;99639.53;;;-3.46;100.00
75650;BME280;64245;51.282;22.494;2023-12-04T07:57:14;99643.75;;;-3.40;100.00
75650;BME280;64245;51.282;22.494;2023-12-04T07:59:39;99637.94;;;-3.50;100.00
75650;BME280;64245;51.282;22.494;2023-12-04T08:02:05;99647.50;;;-3.47;100.00
75650;BME280;64245;51.282;22.494;2023-12-04T08:04:31;99652.47;;;-3.38;100.00
75650;BME280;64245;51.282;22.494;2023-12-04T08:06:57;99651.31;;;-3.30;100.00
75650;BME280;64245;51.282;22.494;2023-12-04T08:09:23;99649.84;;;-3.38;100.00
75650;BME280;64245;51.282;22.494;2023-12-04T08:11:49;99648.69;;;-3.30;100.00
75650;BME280;64245;51.282;22.494;2023-12-04T08:14:14;99643.28;;;-3.27;100.00
75650;BME280;64245;51.282;22.494;2023-12-04T08:16:41;99643.38;;;-3.28;100.00
75650;BME280;64245;51.282;22.494;2023-12-04T08:19:07;99650.47;;;-3.30;100.00
75650;BME280;64245;51.282;22.494;2023-12-04T08:21:33;99647.25;;;-3.40;100.00
75650;BME280;64245;51.282;22.494;2023-12-04T08:23:59;99657.22;;;-3.23;100.00
75650;BME280;64245;51.282;22.494;2023-12-04T08:26:28;99651.09;;;-3.24;100.00
75650;BME280;64245;51.282;22.494;2023-12-04T08:28:53;99658.31;;;-3.29;100.00
75650;BME280;64245;51.282;22.494;2023-12-04T08:31:19;99659.00;;;-3.24;100.00
75650;BME280;64245;51.282;22.494;2023-12-04T08:33:45;99658.13;;;-3.24;100.00
75650;BME280;64245;51.282;22.494;2023-12-04T08:36:11;99675.56;;;-3.20;100.00
75650;BME280;64245;51.282;22.494;2023-12-04T08:38:37;99655.47;;;-3.23;100.00
75650;BME280;64245;51.282;22.494;2023-12-04T08:41:04;99662.44;;;-3.22;100.00
75650;BME280;64245;51.282;22.494;2023-12-04T08:43:30;99668.31;;;-3.12;100.00
75650;BME280;64245;51.282;22.494;2023-12-04T08:45:57;99668.31;;;-3.12;100.00
75650;BME280;64245;51.282;22.494;2023-12-04T08:48:22;99672.66;;;-3.11;100.00
75650;BME280;64245;51.282;22.494;2023-12-04T08:50:49;99667.94;;;-3.01;100.00
75650;BME280;64245;51.282;22.494;2023-12-04T08:53:14;99669.66;;;-3.00;100.00
75650;BME280;64245;51.282;22.494;2023-12-04T08:55:40;99674.78;;;-2.96;100.00
75650;BME280;64245;51.282;22.494;2023-12-04T08:58:06;99666.81;;;-2.94;100.00
75650;BME280;64245;51.282;22.494;2023-12-04T09:00:32;99675.31;;;-2.86;100.00
75650;BME280;64245;51.282;22.494;2023-12-04T09:02:58;99677.47;;;-2.97;100.00
75650;BME280;64245;51.282;22.494;2023-12-04T09:05:24;99663.88;;;-3.11;100.00
75650;BME280;64245;51.282;22.494;2023-12-04T09:07:50;99683.69;;;-3.00;100.00
75650;BME280;64245;51.282;22.494;2023-12-04T09:10:16;99675.63;;;-2.95;100.00
75650;BME280;64245;51.282;22.494;2023-12-04T09:12:42;99671.13;;;-3.18;100.00
75650;BME280;64245;51.282;22.494;2023-12-04T09:15:08;99668.88;;;-3.04;100.00
75650;BME280;64245;51.282;22.494;2023-12-04T09:17:34;99674.81;;;-2.97;100.00
75650;BME280;64245;51.282;22.494;2023-12-04T09:20:06;99660.13;;;-3.04;100.00
75650;BME280;64245;51.282;22.494;2023-12-04T09:22:32;99658.88;;;-2.93;100.00
75650;BME280;64245;51.282;22.494;2023-12-04T09:24:58;99664.19;;;-2.94;100.00
75650;BME280;64245;51.282;22.494;2023-12-04T09:27:24;99677.31;;;-2.68;100.00
75650;BME280;64245;51.282;22.494;2023-12-04T09:29:50;99677.84;;;-2.57;100.00
75650;BME280;64245;51.282;22.494;2023-12-04T09:32:15;99677.88;;;-2.58;100.00
75650;BME280;64245;51.282;22.494;2023-12-04T09:34:41;99664.13;;;-2.68;100.00
75650;BME280;64245;51.282;22.494;2023-12-04T09:37:07;99681.91;;;-2.73;100.00
75650;BME280;64245;51.282;22.494;2023-12-04T09:39:33;99680.94;;;-2.70;100.00
75650;BME280;64245;51.282;22.494;2023-12-04T09:41:59;99674.81;;;-2.71;100.00
75650;BME280;64245;51.282;22.494;2023-12-04T09:44:28;99670.31;;;-2.69;100.00
75650;BME280;64245;51.282;22.494;2023-12-04T09:46:53;99672.16;;;-2.46;100.00
75650;BME280;64245;51.282;22.494;2023-12-04T09:49:20;99651.13;;;-2.48;100.00
75650;BME280;64245;51.282;22.494;2023-12-04T09:51:47;99654.00;;;-2.54;100.00
75650;BME280;64245;51.282;22.494;2023-12-04T09:54:16;99663.59;;;-2.28;100.00
75650;BME280;64245;51.282;22.494;2023-12-04T09:56:43;99672.72;;;-2.36;100.00
75650;BME280;64245;51.282;22.494;2023-12-04T09:59:09;99664.19;;;-2.45;100.00
75650;BME280;64245;51.282;22.494;2023-12-04T10:01:38;99666.59;;;-2.37;100.00
75650;BME280;64245;51.282;22.494;2023-12-04T10:04:05;99656.94;;;-2.13;100.00
75650;BME280;64245;51.282;22.494;2023-12-04T10:06:31;99668.47;;;-2.40;100.00
75650;BME280;64245;51.282;22.494;2023-12-04T10:08:57;99655.22;;;-2.64;100.00
75650;BME280;64245;51.282;22.494;2023-12-04T10:11:26;99659.53;;;-2.61;100.00
75650;BME280;64245;51.282;22.494;2023-12-04T10:13:54;99664.81;;;-2.61;100.00
75650;BME280;64245;51.282;22.494;2023-12-04T10:19:36;99667.91;;;-2.50;100.00
75650;BME280;64245;51.282;22.494;2023-12-04T10:22:02;99661.84;;;-2.52;100.00
75650;BME280;64245;51.282;22.494;2023-12-04T10:27:08;99650.75;;;-2.62;100.00
75650;BME280;64245;51.282;22.494;2023-12-04T10:32:07;99654.56;;;-2.46;100.00
75650;BME280;64245;51.282;22.494;2023-12-04T10:34:34;99653.56;;;-2.41;100.00
75650;BME280;64245;51.282;22.494;2023-12-04T10:36:59;99659.72;;;-2.18;100.00
75650;BME280;64245;51.282;22.494;2023-12-04T10:39:25;99670.19;;;-2.39;100.00
75650;BME280;64245;51.282;22.494;2023-12-04T10:42:02;99647.03;;;-2.31;100.00
75650;BME280;64245;51.282;22.494;2023-12-04T10:44:30;99660.19;;;-2.06;100.00
75650;BME280;64245;51.282;22.494;2023-12-04T10:46:56;99656.13;;;-1.70;100.00
75650;BME280;64245;51.282;22.494;2023-12-04T10:49:27;99644.50;;;-1.64;100.00
75650;BME280;64245;51.282;22.494;2023-12-04T10:51:57;99646.28;;;-1.88;100.00
75650;BME280;64245;51.282;22.494;2023-12-04T10:54:27;99650.72;;;-1.89;100.00
75650;BME280;64245;51.282;22.494;2023-12-04T10:56:58;99650.75;;;-1.67;100.00
75650;BME280;64245;51.282;22.494;2023-12-04T10:59:27;99654.56;;;-1.97;100.00
75650;BME280;64245;51.282;22.494;2023-12-04T11:01:58;99661.84;;;-2.04;100.00
75650;BME280;64245;51.282;22.494;2023-12-04T11:04:27;99646.94;;;-2.05;100.00
75650;BME280;64245;51.282;22.494;2023-12-04T11:06:54;99654.94;;;-2.08;100.00
75650;BME280;64245;51.282;22.494;2023-12-04T11:09:22;99659.38;;;-2.32;100.00
75650;BME280;64245;51.282;22.494;2023-12-04T11:11:56;99665.63;;;-2.34;100.00
75650;BME280;64245;51.282;22.494;2023-12-04T11:14:25;99655.19;;;-2.14;100.00
75650;BME280;64245;51.282;22.494;2023-12-04T11:17:03;99668.63;;;-1.97;100.00
75650;BME280;64245;51.282;22.494;2023-12-04T11:19:50;99672.28;;;-2.01;100.00
75650;BME280;64245;51.282;22.494;2023-12-04T11:22:17;99659.25;;;-2.05;100.00
75650;BME280;64245;51.282;22.494;2023-12-04T11:24:47;99650.59;;;-2.09;100.00
75650;BME280;64245;51.282;22.494;2023-12-04T11:27:17;99664.34;;;-2.24;100.00
75650;BME280;64245;51.282;22.494;2023-12-04T11:29:45;99656.75;;;-2.32;100.00
75650;BME280;64245;51.282;22.494;2023-12-04T11:32:15;99660.84;;;-2.50;100.00
75650;BME280;64245;51.282;22.494;2023-12-04T11:34:54;99651.25;;;-2.51;100.00
75650;BME280;64245;51.282;22.494;2023-12-04T11:37:21;99663.59;;;-2.28;100.00
75650;BME280;64245;51.282;22.494;2023-12-04T11:39:49;99654.50;;;-1.96;100.00
75650;BME280;64245;51.282;22.494;2023-12-04T11:42:33;99659.19;;;-2.04;100.00
75650;BME280;64245;51.282;22.494;2023-12-04T11:44:59;99658.88;;;-1.95;100.00
75650;BME280;64245;51.282;22.494;2023-12-04T11:47:27;99653.53;;;-1.93;100.00
75650;BME280;64245;51.282;22.494;2023-12-04T11:49:53;99658.06;;;-1.73;100.00
75650;BME280;64245;51.282;22.494;2023-12-04T11:52:32;99652.91;;;-2.00;100.00
75650;BME280;64245;51.282;22.494;2023-12-04T11:57:26;99665.63;;;-2.11;100.00
75650;BME280;64245;51.282;22.494;2023-12-04T12:00:12;99643.94;;;-2.19;100.00
75650;BME280;64245;51.282;22.494;2023-12-04T12:05:15;99660.19;;;-2.55;100.00
75650;BME280;64245;51.282;22.494;2023-12-04T12:07:41;99662.88;;;-2.56;100.00
75650;BME280;64245;51.282;22.494;2023-12-04T12:10:08;99654.97;;;-2.56;100.00
75650;BME280;64245;51.282;22.494;2023-12-04T12:12:34;99657.66;;;-2.33;100.00
75650;BME280;64245;51.282;22.494;2023-12-04T12:15:03;99660.94;;;-2.51;100.00
75650;BME280;64245;51.282;22.494;2023-12-04T12:17:30;99650.06;;;-2.42;100.00
75650;BME280;64245;51.282;22.494;2023-12-04T12:19:56;99653.00;;;-2.26;100.00
75650;BME280;64245;51.282;22.494;2023-12-04T12:22:25;99653.03;;;-2.28;100.00
75650;BME280;64245;51.282;22.494;2023-12-04T12:24:51;99641.47;;;-2.72;100.00
75650;BME280;64245;51.282;22.494;2023-12-04T12:27:17;99635.97;;;-2.91;100.00
75650;BME280;64245;51.282;22.494;2023-12-04T12:29:43;99648.56;;;-2.74;100.00
75650;BME280;64245;51.282;22.494;2023-12-04T12:32:08;99639.28;;;-2.86;100.00
75650;BME280;64245;51.282;22.494;2023-12-04T12:34:35;99654.69;;;-2.73;100.00
75650;BME280;64245;51.282;22.494;2023-12-04T12:37:03;99646.22;;;-2.83;100.00
75650;BME280;64245;51.282;22.494;2023-12-04T12:39:29;99634.34;;;-2.95;100.00
75650;BME280;64245;51.282;22.494;2023-12-04T12:41:55;99636.84;;;-2.90;100.00
75650;BME280;64245;51.282;22.494;2023-12-04T12:44:21;99644.38;;;-3.06;100.00
75650;BME280;64245;51.282;22.494;2023-12-04T12:46:48;99642.84;;;-2.87;100.00
75650;BME280;64245;51.282;22.494;2023-12-04T12:49:18;99629.06;;;-3.21;100.00
75650;BME280;64245;51.282;22.494;2023-12-04T12:51:47;99642.19;;;-3.20;100.00
75650;BME280;64245;51.282;22.494;2023-12-04T12:54:13;99629.34;;;-3.29;100.00
75650;BME280;64245;51.282;22.494;2023-12-04T12:56:40;99643.50;;;-3.33;100.00
75650;BME280;64245;51.282;22.494;2023-12-04T12:59:06;99640.25;;;-3.41;100.00